Time;durP1;ratioP1;P1;durP2;ratioP2;P2;SDS_P1;SDS_P2;PMS_P1;PMS_P2;Temp;Humidity;BMP_temperature;BMP_pressure;BME280_temperature;BME280_humidity;BME280_pressure;Samples;Min_cycle;Max_cycle;Signal;HPM_P1;HPM_P2
2021/09/25 00:01:12;;;;;;;12.13;9.48;;;;;;;16.07;100.00;101025.66;4950314;28;20171;-83
2021/09/25 00:03:37;;;;;;;12.57;9.88;;;;;;;16.04;100.00;101025.22;4953588;28;20043;-83
2021/09/25 00:06:02;;;;;;;15.85;10.93;;;;;;;15.99;100.00;101029.34;4953473;28;20054;-84
2021/09/25 00:08:28;;;;;;;15.18;9.50;;;;;;;15.95;100.00;101038.88;4950598;28;20090;-82
2021/09/25 00:10:53;;;;;;;13.38;10.40;;;;;;;15.91;100.00;101034.91;4949960;28;20098;-87
2021/09/25 00:13:19;;;;;;;17.02;10.50;;;;;;;15.90;100.00;101035.91;4955608;28;20042;-82
2021/09/25 00:15:44;;;;;;;16.77;10.68;;;;;;;15.86;100.00;101036.50;4949979;28;20055;-83
2021/09/25 00:18:10;;;;;;;16.20;11.25;;;;;;;15.84;100.00;101041.28;4953680;28;20130;-83
2021/09/25 00:20:37;;;;;;;13.40;10.35;;;;;;;15.78;100.00;101032.06;4948983;28;20039;-82
2021/09/25 00:23:04;;;;;;;15.45;10.52;;;;;;;15.74;100.00;101031.59;4946803;28;20087;-82
2021/09/25 00:25:29;;;;;;;16.60;10.30;;;;;;;15.74;100.00;101030.78;4946656;28;20494;-83
2021/09/25 00:27:55;;;;;;;16.08;10.32;;;;;;;15.68;100.00;101031.50;4948515;28;20142;-82
2021/09/25 00:30:20;;;;;;;15.60;10.75;;;;;;;15.70;100.00;101037.59;4952299;28;20092;-81
2021/09/25 00:32:46;;;;;;;17.50;10.82;;;;;;;15.67;100.00;101033.34;4951395;28;20143;-82
2021/09/25 00:35:12;;;;;;;15.88;11.93;;;;;;;15.70;100.00;101040.28;4952961;28;20080;-82
2021/09/25 00:37:39;;;;;;;16.70;11.07;;;;;;;15.68;100.00;101034.22;4950946;28;20490;-82
2021/09/25 00:40:06;;;;;;;16.48;10.95;;;;;;;15.66;100.00;101033.56;4935673;28;20057;-83
2021/09/25 00:42:32;;;;;;;16.75;10.48;;;;;;;15.65;100.00;101037.28;4942748;28;20087;-84
2021/09/25 00:44:57;;;;;;;16.17;10.75;;;;;;;15.66;100.00;101044.38;4946164;28;20047;-86
2021/09/25 00:47:23;;;;;;;17.55;11.40;;;;;;;15.68;100.00;101048.63;4946880;28;20047;-81
2021/09/25 00:49:48;;;;;;;14.90;11.07;;;;;;;15.66;100.00;101055.22;4953516;28;20058;-82
2021/09/25 00:52:13;;;;;;;18.00;10.82;;;;;;;15.65;100.00;101058.91;4956764;28;20049;-83
2021/09/25 00:54:39;;;;;;;15.07;10.38;;;;;;;15.65;100.00;101048.97;4953220;28;20138;-81
2021/09/25 00:57:05;;;;;;;14.75;9.80;;;;;;;15.63;100.00;101048.31;4953684;28;20058;-82
2021/09/25 00:59:31;;;;;;;14.52;9.90;;;;;;;15.62;100.00;101048.47;4950720;28;20051;-82
2021/09/25 01:01:57;;;;;;;15.73;11.55;;;;;;;15.61;100.00;101046.81;4949407;28;20131;-82
2021/09/25 01:04:23;;;;;;;14.70;11.23;;;;;;;15.61;100.00;101042.25;4951274;28;20039;-83
2021/09/25 01:06:48;;;;;;;15.15;10.90;;;;;;;15.64;100.00;101041.03;4947966;28;20486;-84
2021/09/25 01:09:14;;;;;;;18.63;11.77;;;;;;;15.66;100.00;101044.38;4943573;28;20135;-82
2021/09/25 01:11:39;;;;;;;15.93;10.52;;;;;;;15.65;100.00;101040.84;4947417;28;20035;-83
2021/09/25 01:14:05;;;;;;;14.95;10.75;;;;;;;15.65;100.00;101042.69;4948330;28;20069;-83
2021/09/25 01:16:31;;;;;;;17.52;11.15;;;;;;;15.64;100.00;101043.72;4948690;28;20531;-83
2021/09/25 01:18:57;;;;;;;14.95;10.35;;;;;;;15.64;100.00;101043.72;4946984;28;20154;-83
2021/09/25 01:21:22;;;;;;;14.20;9.50;;;;;;;15.63;100.00;101047.47;4945935;28;20539;-84
2021/09/25 01:23:48;;;;;;;16.92;11.00;;;;;;;15.62;100.00;101045.78;4953264;28;20050;-86
2021/09/25 01:26:13;;;;;;;16.20;9.98;;;;;;;15.62;100.00;101043.06;4952220;28;20246;-83
2021/09/25 01:28:41;;;;;;;16.00;10.20;;;;;;;15.60;100.00;101042.44;4954910;28;20118;-83
2021/09/25 01:31:09;;;;;;;15.67;10.63;;;;;;;15.61;100.00;101042.25;4950681;28;20521;-83
2021/09/25 01:33:42;;;;;;;13.93;10.38;;;;;;;15.62;100.00;101046.63;4931989;28;20042;-87
2021/09/25 01:36:09;;;;;;;16.55;10.25;;;;;;;15.57;100.00;101041.78;4909876;29;20322;-83
2021/09/25 01:38:36;;;;;;;16.40;10.93;;;;;;;15.57;100.00;101036.38;4929802;29;20039;-83
2021/09/25 01:41:01;;;;;;;19.20;11.48;;;;;;;15.61;100.00;101041.41;4930804;29;20668;-84
2021/09/25 01:43:29;;;;;;;18.95;10.75;;;;;;;15.63;100.00;101033.94;4954452;28;20141;-85
2021/09/25 01:45:55;;;;;;;17.30;10.63;;;;;;;15.61;100.00;101027.88;4954383;28;20513;-88
2021/09/25 01:48:20;;;;;;;16.60;9.70;;;;;;;15.58;100.00;101035.34;4950670;28;20050;-82
2021/09/25 01:50:46;;;;;;;16.48;11.40;;;;;;;15.60;100.00;101039.75;4944399;28;20051;-83
2021/09/25 01:53:12;;;;;;;16.75;11.38;;;;;;;15.57;100.00;101030.97;4943569;28;20133;-83
2021/09/25 01:55:37;;;;;;;16.42;11.10;;;;;;;15.57;100.00;101036.38;4944033;28;20051;-83
2021/09/25 01:58:03;;;;;;;18.27;10.98;;;;;;;15.55;100.00;101033.03;4935718;28;20074;-83
2021/09/25 02:00:30;;;;;;;15.80;11.50;;;;;;;15.57;100.00;101030.97;4934140;28;20054;-84
2021/09/25 02:02:55;;;;;;;16.58;10.13;;;;;;;15.58;100.00;101031.81;4944682;28;20047;-84
2021/09/25 02:05:21;;;;;;;16.65;11.10;;;;;;;15.54;100.00;101028.66;4946942;28;20101;-82
2021/09/25 02:07:49;;;;;;;16.58;10.15;;;;;;;15.54;100.00;101027.81;4946606;28;20134;-82
2021/09/25 02:10:15;;;;;;;16.15;10.68;;;;;;;15.57;100.00;101025.56;4943496;28;20046;-87
2021/09/25 02:12:41;;;;;;;20.60;11.85;;;;;;;15.55;100.00;101032.19;4946893;28;20401;-83
2021/09/25 02:15:08;;;;;;;17.90;11.68;;;;;;;15.57;100.00;101030.97;4926372;29;20051;-83
2021/09/25 02:17:34;;;;;;;17.33;11.77;;;;;;;15.55;100.00;101038.44;4929932;29;20046;-85
2021/09/25 02:19:59;;;;;;;16.77;11.07;;;;;;;15.55;100.00;101033.03;4935468;28;20142;-88
2021/09/25 02:22:25;;;;;;;20.33;11.98;;;;;;;15.59;100.00;101030.75;4932245;28;20131;-83
2021/09/25 02:24:50;;;;;;;16.35;11.50;;;;;;;15.55;100.00;101024.91;4935915;28;20047;-84
2021/09/25 02:27:16;;;;;;;15.50;10.70;;;;;;;15.55;100.00;101029.50;4940472;28;20106;-84
2021/09/25 02:29:41;;;;;;;18.13;10.93;;;;;;;15.51;100.00;101030.91;4938986;28;20490;-83
2021/09/25 02:32:07;;;;;;;19.80;10.55;;;;;;;15.48;100.00;101040.25;4938296;28;20050;-84
2021/09/25 02:34:34;;;;;;;16.95;10.88;;;;;;;15.51;100.00;101033.63;4938805;28;20055;-83
2021/09/25 02:36:59;;;;;;;17.13;11.02;;;;;;;15.54;100.00;101028.66;4941555;28;20071;-83
2021/09/25 02:39:26;;;;;;;17.38;11.43;;;;;;;15.53;100.00;101023.41;4929107;28;20491;-83
2021/09/25 02:41:52;;;;;;;17.27;10.98;;;;;;;15.50;100.00;101030.06;4928586;29;20133;-82
2021/09/25 02:44:18;;;;;;;17.80;11.43;;;;;;;15.50;100.00;101023.81;4934602;28;20481;-86
2021/09/25 02:46:44;;;;;;;18.80;10.80;;;;;;;15.53;100.00;101034.25;4946234;28;20409;-85
2021/09/25 02:49:09;;;;;;;17.25;11.43;;;;;;;15.48;100.00;101025.88;4942365;28;20039;-84
2021/09/25 02:51:34;;;;;;;17.73;11.15;;;;;;;15.48;100.00;101031.28;4939906;28;20047;-82
2021/09/25 02:54:00;;;;;;;19.15;10.82;;;;;;;15.49;100.00;101028.38;4935513;28;20487;-83
2021/09/25 02:56:25;;;;;;;16.25;10.48;;;;;;;15.45;100.00;101027.09;4948529;28;20059;-82
2021/09/25 02:58:51;;;;;;;16.45;11.20;;;;;;;15.48;100.00;101034.00;4943279;28;20058;-85
2021/09/25 03:01:16;;;;;;;17.33;11.52;;;;;;;15.47;100.00;101030.44;4928831;28;20043;-86
2021/09/25 03:03:42;;;;;;;15.57;11.02;;;;;;;15.50;100.00;101029.22;4942078;28;20067;-83
2021/09/25 03:06:07;;;;;;;14.98;10.15;;;;;;;15.46;100.00;101017.94;4941790;28;20054;-84
2021/09/25 03:08:32;;;;;;;17.30;10.45;;;;;;;15.47;100.00;101025.03;4940758;28;20051;-84
2021/09/25 03:10:58;;;;;;;16.35;10.18;;;;;;;15.45;100.00;101028.94;4937096;28;20087;-82
2021/09/25 03:13:23;;;;;;;17.35;10.98;;;;;;;15.48;100.00;101026.72;4945268;28;20043;-84
2021/09/25 03:15:49;;;;;;;20.77;11.25;;;;;;;15.45;100.00;101028.94;4937368;28;20059;-83
2021/09/25 03:18:14;;;;;;;15.05;9.32;;;;;;;15.42;100.00;101022.06;4939125;28;20047;-86
2021/09/25 03:20:40;;;;;;;16.85;10.25;;;;;;;15.40;100.00;101029.53;4939498;28;20047;-87
2021/09/25 03:23:06;;;;;;;17.38;10.07;;;;;;;15.40;100.00;101026.00;4944062;28;20490;-87
2021/09/25 03:25:31;;;;;;;17.70;10.57;;;;;;;15.43;100.00;101031.03;4946403;28;20074;-83
2021/09/25 03:27:57;;;;;;;17.70;10.32;;;;;;;15.44;100.00;101035.38;4936628;28;20079;-83
2021/09/25 03:30:23;;;;;;;16.40;10.70;;;;;;;15.42;100.00;101032.91;4939155;28;20119;-82
2021/09/25 03:32:48;;;;;;;19.25;10.80;;;;;;;15.41;100.00;101033.91;4943036;28;20055;-87
2021/09/25 03:35:14;;;;;;;17.90;11.32;;;;;;;15.39;100.00;101035.94;4947473;28;20316;-86
2021/09/25 03:37:40;;;;;;;15.43;10.55;;;;;;;15.40;100.00;101036.81;4915492;29;20047;-82
2021/09/25 03:40:07;;;;;;;19.20;10.82;;;;;;;15.41;100.00;101036.59;4933773;28;20139;-83
2021/09/25 03:42:33;;;;;;;17.98;10.00;;;;;;;15.40;100.00;101037.66;4935425;28;20044;-84
2021/09/25 03:44:58;;;;;;;17.95;10.90;;;;;;;15.37;100.00;101040.72;4944195;28;20403;-87
2021/09/25 03:47:24;;;;;;;16.60;10.65;;;;;;;15.40;100.00;101048.47;4945832;28;20047;-83
2021/09/25 03:49:49;;;;;;;17.20;9.60;;;;;;;15.37;100.00;101045.31;4940847;28;20130;-83
2021/09/25 03:52:15;;;;;;;16.67;10.18;;;;;;;15.35;100.00;101043.59;4938869;28;20046;-84
2021/09/25 03:54:40;;;;;;;17.00;9.95;;;;;;;15.34;100.00;101036.53;4939186;28;20055;-83
2021/09/25 03:57:06;;;;;;;18.23;10.65;;;;;;;15.34;100.00;101035.69;4927838;28;20051;-86
2021/09/25 03:59:32;;;;;;;19.17;11.05;;;;;;;15.33;100.00;101034.00;4934424;28;20054;-83
2021/09/25 04:01:57;;;;;;;15.45;10.68;;;;;;;15.30;100.00;101042.50;4935717;28;20043;-83
2021/09/25 04:04:22;;;;;;;17.48;10.40;;;;;;;15.28;100.00;101041.88;4924809;29;20048;-83
2021/09/25 04:06:48;;;;;;;19.50;10.43;;;;;;;15.29;100.00;101033.56;4942555;28;20051;-83
2021/09/25 04:09:13;;;;;;;17.00;10.82;;;;;;;15.26;100.00;101036.63;4933231;28;20043;-83
2021/09/25 04:11:39;;;;;;;17.65;10.48;;;;;;;15.30;100.00;101042.50;4937892;28;20144;-83
2021/09/25 04:14:04;;;;;;;17.50;10.45;;;;;;;15.32;100.00;101037.75;4939830;28;20047;-84
2021/09/25 04:16:30;;;;;;;17.17;10.65;;;;;;;15.32;100.00;101043.16;4940643;28;20449;-83
2021/09/25 04:18:55;;;;;;;17.70;10.60;;;;;;;15.28;100.00;101044.56;4944306;28;20047;-83
2021/09/25 04:21:21;;;;;;;15.40;10.32;;;;;;;15.28;100.00;101048.09;4943283;28;20561;-87
2021/09/25 04:23:46;;;;;;;17.42;11.32;;;;;;;15.31;100.00;101036.09;4942796;28;20125;-82
2021/09/25 04:26:12;;;;;;;17.15;10.60;;;;;;;15.31;100.00;101038.78;4944897;28;20047;-85
2021/09/25 04:28:37;;;;;;;18.00;11.23;;;;;;;15.28;100.00;101044.56;4945210;28;20046;-82
2021/09/25 04:31:03;;;;;;;17.90;10.98;;;;;;;15.25;100.00;101043.09;4941433;28;20055;-84
2021/09/25 04:33:28;;;;;;;17.63;11.32;;;;;;;15.29;100.00;101040.84;4936771;28;21104;-87
2021/09/25 04:35:53;;;;;;;19.02;11.18;;;;;;;15.27;100.00;101045.59;4934627;28;20040;-83
2021/09/25 04:38:19;;;;;;;23.13;12.25;;;;;;;15.25;100.00;101045.78;4937551;28;20573;-84
2021/09/25 04:40:44;;;;;;;20.52;12.18;;;;;;;15.27;100.00;101046.41;4936727;28;20494;-82
2021/09/25 04:43:10;;;;;;;19.23;12.15;;;;;;;15.28;100.00;101045.41;4938521;28;20074;-85
2021/09/25 04:45:35;;;;;;;18.90;12.32;;;;;;;15.27;100.00;101041.00;4942325;28;20043;-87
2021/09/25 04:48:01;;;;;;;18.83;11.57;;;;;;;15.25;100.00;101039.53;4944495;28;20067;-82
2021/09/25 04:50:30;;;;;;;24.20;13.93;;;;;;;15.23;100.00;101041.59;4944193;28;20042;-86
2021/09/25 04:53:06;;;;;;;18.17;11.88;;;;;;;15.20;100.00;101040.09;4911478;28;20040;-83
2021/09/25 04:55:32;;;;;;;17.98;12.13;;;;;;;15.18;100.00;101039.44;4934563;28;20051;-83
2021/09/25 04:57:57;;;;;;;20.27;12.73;;;;;;;15.24;100.00;101035.97;4936745;28;20268;-83
2021/09/25 05:00:22;;;;;;;20.27;12.90;;;;;;;15.21;100.00;101035.53;4945029;28;20047;-83
2021/09/25 05:02:48;;;;;;;19.58;13.27;;;;;;;15.22;100.00;101032.66;4939753;28;20059;-82
2021/09/25 05:05:13;;;;;;;18.15;12.20;;;;;;;15.21;100.00;101030.13;4931577;28;20043;-84
2021/09/25 05:07:38;;;;;;;21.05;12.45;;;;;;;15.19;100.00;101027.63;4935529;28;20483;-87
2021/09/25 05:10:04;;;;;;;19.88;12.57;;;;;;;15.17;100.00;101029.66;4934639;28;20077;-84
2021/09/25 05:12:30;;;;;;;20.27;12.80;;;;;;;15.18;100.00;101034.03;4935642;28;20246;-85
2021/09/25 05:14:55;;;;;;;20.10;12.32;;;;;;;15.16;100.00;101032.53;4946181;28;20062;-84
2021/09/25 05:17:20;;;;;;;21.88;13.07;;;;;;;15.15;100.00;101033.59;4943541;28;20043;-83
2021/09/25 05:19:47;;;;;;;19.05;12.82;;;;;;;15.14;100.00;101034.63;4954545;28;20109;-83
2021/09/25 05:22:13;;;;;;;18.33;12.57;;;;;;;15.12;100.00;101041.03;4946632;28;20448;-87
2021/09/25 05:24:38;;;;;;;21.58;13.73;;;;;;;15.11;100.00;101042.06;4952015;28;20122;-84
2021/09/25 05:27:04;;;;;;;21.65;12.75;;;;;;;15.09;100.00;101051.38;4954515;28;20125;-82
2021/09/25 05:29:30;;;;;;;17.15;12.20;;;;;;;15.08;100.00;101053.25;4947403;28;20057;-84
2021/09/25 05:31:58;;;;;;;19.25;12.48;;;;;;;15.12;100.00;101061.81;4949961;28;20047;-83
2021/09/25 05:34:25;;;;;;;29.60;15.18;;;;;;;15.07;100.00;101066.94;4962397;28;20118;-84
2021/09/25 05:36:50;;;;;;;20.15;13.15;;;;;;;15.08;100.00;101053.25;4960083;28;20043;-83
2021/09/25 05:39:15;;;;;;;19.33;12.20;;;;;;;15.08;100.00;101053.25;4951717;28;20053;-83
2021/09/25 05:41:41;;;;;;;21.73;12.43;;;;;;;15.05;100.00;101055.50;4954328;28;20039;-82
2021/09/25 05:44:06;;;;;;;17.67;12.88;;;;;;;15.03;100.00;101060.25;4959695;28;20047;-83
2021/09/25 05:46:31;;;;;;;20.50;13.48;;;;;;;15.04;100.00;101061.91;4961071;28;20042;-86
2021/09/25 05:48:57;;;;;;;22.23;12.95;;;;;;;14.98;100.00;101065.38;4960887;28;20130;-83
2021/09/25 05:51:22;;;;;;;23.60;13.63;;;;;;;15.01;100.00;101067.69;4927331;29;20044;-83
2021/09/25 05:53:48;;;;;;;22.65;13.80;;;;;;;14.99;100.00;101076.00;4926730;28;20113;-83
2021/09/25 05:56:14;;;;;;;22.48;12.90;;;;;;;14.98;100.00;101076.19;4926528;28;20047;-83
2021/09/25 05:58:40;;;;;;;19.70;13.13;;;;;;;14.99;100.00;101076.00;4940110;28;20037;-88
2021/09/25 06:01:05;;;;;;;21.30;13.20;;;;;;;15.00;100.00;101072.25;4943735;28;22850;-82
2021/09/25 06:03:31;;;;;;;21.90;14.13;;;;;;;15.01;100.00;101078.50;4953311;28;20509;-84
2021/09/25 06:05:56;;;;;;;20.33;12.70;;;;;;;14.98;100.00;101074.31;4958338;28;20070;-82
2021/09/25 06:08:21;;;;;;;18.35;13.23;;;;;;;14.98;100.00;101078.88;4956300;28;20047;-85
2021/09/25 06:10:47;;;;;;;18.30;12.85;;;;;;;15.01;100.00;101079.34;4954722;28;20727;-82
2021/09/25 06:13:12;;;;;;;20.40;12.90;;;;;;;15.02;100.00;101091.00;4950226;28;20091;-85
2021/09/25 06:15:38;;;;;;;22.83;13.35;;;;;;;15.00;100.00;101090.34;4949262;28;20114;-83
2021/09/25 06:18:04;;;;;;;21.10;14.10;;;;;;;15.03;100.00;101085.41;4951804;28;20043;-82
2021/09/25 06:20:30;;;;;;;20.55;13.40;;;;;;;15.05;100.00;101091.47;4948018;28;20054;-83
2021/09/25 06:22:56;;;;;;;22.20;12.38;;;;;;;15.00;100.00;101093.88;4951145;28;20518;-82
2021/09/25 06:25:22;;;;;;;18.52;13.35;;;;;;;15.02;100.00;101097.25;4954159;28;20050;-82
2021/09/25 06:27:47;;;;;;;19.73;12.93;;;;;;;15.04;100.00;101097.06;4947512;28;20841;-82
2021/09/25 06:30:13;;;;;;;21.02;14.00;;;;;;;15.02;100.00;101094.56;4953051;28;20054;-82
2021/09/25 06:32:38;;;;;;;20.67;12.85;;;;;;;15.00;100.00;101096.59;4951715;28;20062;-83
2021/09/25 06:35:08;;;;;;;20.73;13.27;;;;;;;15.02;100.00;101101.81;4948578;28;20126;-83
2021/09/25 06:37:34;;;;;;;21.10;13.60;;;;;;;14.99;100.00;101094.94;4948163;28;20490;-81
2021/09/25 06:39:59;;;;;;;23.60;14.10;;;;;;;15.04;100.00;101094.34;4955936;28;20067;-82
2021/09/25 06:42:25;;;;;;;22.17;14.25;;;;;;;15.03;100.00;101098.91;4958727;28;20113;-83
2021/09/25 06:44:50;;;;;;;19.73;12.75;;;;;;;15.06;100.00;101097.72;4962278;28;20078;-83
2021/09/25 06:47:16;;;;;;;19.80;13.50;;;;;;;15.03;100.00;101098.09;4959490;28;20054;-83
2021/09/25 06:49:41;;;;;;;18.98;14.52;;;;;;;15.03;100.00;101087.28;4952616;28;20035;-86
2021/09/25 06:52:07;;;;;;;20.58;14.90;;;;;;;15.02;100.00;101091.84;4964260;28;20155;-83
2021/09/25 06:54:34;;;;;;;19.25;12.18;;;;;;;15.01;100.00;101090.16;4943299;29;20620;-83
2021/09/25 06:57:01;;;;;;;21.00;13.65;;;;;;;15.02;100.00;101086.44;4939692;28;20051;-83
2021/09/25 06:59:27;;;;;;;20.48;13.25;;;;;;;15.04;100.00;101092.47;4930583;29;20058;-81
2021/09/25 07:01:52;;;;;;;20.52;13.73;;;;;;;15.06;100.00;101095.84;4927903;29;20055;-83
2021/09/25 07:04:18;;;;;;;19.58;14.23;;;;;;;15.07;100.00;101092.09;4930499;29;20139;-84
2021/09/25 07:06:43;;;;;;;21.58;13.35;;;;;;;15.08;100.00;101091.09;4941202;29;20111;-82
2021/09/25 07:09:09;;;;;;;21.55;13.50;;;;;;;15.10;100.00;101091.75;4948560;29;20134;-82
2021/09/25 07:11:35;;;;;;;22.25;13.43;;;;;;;15.10;100.00;101091.75;4941840;28;20060;-84
2021/09/25 07:14:00;;;;;;;20.63;12.73;;;;;;;15.13;100.00;101098.63;4931728;28;20059;-84
2021/09/25 07:16:26;;;;;;;20.33;13.63;;;;;;;15.11;100.00;101093.44;4937201;28;20051;-86
2021/09/25 07:18:51;;;;;;;21.92;14.63;;;;;;;15.14;100.00;101100.31;4934338;28;20522;-81
2021/09/25 07:21:17;;;;;;;21.33;14.38;;;;;;;15.11;100.00;101106.94;4931527;28;20059;-87
2021/09/25 07:23:42;;;;;;;21.02;13.85;;;;;;;15.10;100.00;101102.56;4934002;28;20409;-84
2021/09/25 07:26:08;;;;;;;19.90;13.20;;;;;;;15.12;100.00;101108.59;4935749;28;20647;-82
2021/09/25 07:28:33;;;;;;;20.88;13.77;;;;;;;15.18;100.00;101119.72;4928937;28;20048;-82
2021/09/25 07:31:01;;;;;;;19.90;13.75;;;;;;;15.19;100.00;101124.94;4942893;28;20054;-87
2021/09/25 07:33:27;;;;;;;21.75;13.70;;;;;;;15.22;100.00;101129.09;4941469;28;20054;-85
2021/09/25 07:35:52;;;;;;;18.90;13.45;;;;;;;15.25;100.00;101126.06;4949189;28;20039;-83
2021/09/25 07:38:18;;;;;;;23.52;14.70;;;;;;;15.28;100.00;101123.81;4945593;28;20378;-85
2021/09/25 07:40:43;;;;;;;18.75;12.77;;;;;;;15.30;100.00;101137.97;4944624;28;20406;-85
2021/09/25 07:43:09;;;;;;;19.60;13.48;;;;;;;15.32;100.00;101140.50;4943337;28;20140;-85
2021/09/25 07:45:34;;;;;;;22.60;13.93;;;;;;;15.34;100.00;101133.03;4944162;28;20047;-86
2021/09/25 07:48:01;;;;;;;20.45;12.73;;;;;;;15.35;100.00;101134.72;4946342;28;20082;-82
2021/09/25 07:50:26;;;;;;;21.33;12.85;;;;;;;15.41;100.00;101142.06;4950954;28;20047;-84
2021/09/25 07:52:55;;;;;;;20.00;13.05;;;;;;;15.40;100.00;101135.00;4944653;28;20051;-84
2021/09/25 07:55:21;;;;;;;;;;;;;;;15.46;100.00;101142.34;4951281;28;20123;-86
2021/09/25 07:57:46;;;;;;;18.67;11.18;;;;;;;15.36;100.00;101152.59;4948061;28;19918;-82
2021/09/25 08:00:14;;;;;;;18.80;12.38;;;;;;;15.41;100.00;101149.34;4944812;28;20066;-84
2021/09/25 08:02:40;;;;;;;18.65;11.60;;;;;;;15.47;100.00;101154.84;4948613;28;20494;-85
2021/09/25 08:05:07;;;;;;;19.05;12.65;;;;;;;15.55;100.00;101162.84;4946077;28;20047;-86
2021/09/25 08:07:32;;;;;;;19.60;13.98;;;;;;;15.57;100.00;101160.81;4944179;28;20524;-83
2021/09/25 08:09:57;;;;;;;17.45;11.30;;;;;;;15.60;100.00;101166.88;4943983;28;20043;-84
2021/09/25 08:12:23;;;;;;;21.70;15.43;;;;;;;15.60;100.00;101165.00;4946967;28;20044;-84
2021/09/25 08:14:49;;;;;;;19.13;13.55;;;;;;;15.64;100.00;101170.88;4943216;28;20102;-82
2021/09/25 08:17:14;;;;;;;19.50;14.00;;;;;;;15.64;100.00;101166.28;4923643;28;20101;-83
2021/09/25 08:19:40;;;;;;;23.73;15.45;;;;;;;15.65;100.00;101172.53;4924606;29;20052;-85
2021/09/25 08:22:05;;;;;;;20.13;12.55;;;;;;;15.69;100.00;101166.59;4928447;28;20743;-82
2021/09/25 08:24:31;;;;;;;22.63;12.45;;;;;;;15.73;100.00;101175.19;4938277;28;20106;-87
2021/09/25 08:26:56;;;;;;;21.63;15.52;;;;;;;15.71;100.00;101178.09;4931977;29;20088;-83
2021/09/25 08:29:22;;;;;;;19.30;13.95;;;;;;;15.71;100.00;101185.38;4941045;28;20438;-83
2021/09/25 08:31:48;;;;;;;19.83;13.75;;;;;;;15.75;100.00;101189.38;4950753;28;20046;-84
2021/09/25 08:34:13;;;;;;;20.42;12.65;;;;;;;15.77;100.00;101190.03;4950451;28;20050;-86
2021/09/25 08:36:39;;;;;;;20.30;12.43;;;;;;;15.79;100.00;101186.09;4959317;28;20067;-83
2021/09/25 08:39:04;;;;;;;19.33;12.90;;;;;;;15.79;100.00;101185.25;4944070;28;20115;-84
2021/09/25 08:41:32;;;;;;;19.10;12.40;;;;;;;15.77;100.00;101187.31;4930027;28;20102;-82
2021/09/25 08:43:58;;;;;;;18.02;11.90;;;;;;;15.82;100.00;101192.97;4929800;28;20703;-83
2021/09/25 08:46:24;;;;;;;20.08;13.45;;;;;;;15.84;100.00;101181.97;4947912;28;20106;-86
2021/09/25 08:48:49;;;;;;;20.30;12.80;;;;;;;15.82;100.00;101187.56;4924908;28;20046;-82
2021/09/25 08:51:14;;;;;;;20.55;13.38;;;;;;;15.84;100.00;101190.09;4947343;28;20406;-87
2021/09/25 08:53:40;;;;;;;20.92;12.20;;;;;;;15.82;100.00;101187.56;4945661;28;20055;-83
2021/09/25 08:56:06;;;;;;;20.20;12.55;;;;;;;15.87;100.00;101195.97;4938724;28;20082;-83
2021/09/25 08:58:31;;;;;;;19.17;13.05;;;;;;;15.89;100.00;101191.22;4943655;28;20051;-84
2021/09/25 09:00:56;;;;;;;18.60;12.55;;;;;;;15.85;100.00;101187.19;4949531;28;20042;-82
2021/09/25 09:03:29;;;;;;;21.73;13.70;;;;;;;15.88;100.00;101186.84;4946804;28;20451;-83
2021/09/25 09:06:17;;;;;;;20.23;14.07;;;;;;;15.96;100.00;101184.00;4952979;28;20453;-84
2021/09/25 09:08:46;;;;;;;19.05;13.57;;;;;;;16.01;100.00;101183.44;4949053;28;20047;-82
2021/09/25 09:11:12;;;;;;;22.52;13.25;;;;;;;16.04;100.00;101188.47;4944277;28;20063;-84
2021/09/25 09:13:40;;;;;;;18.77;12.18;;;;;;;16.07;100.00;101187.25;4946619;28;20521;-84
2021/09/25 09:16:08;;;;;;;21.25;13.57;;;;;;;16.05;100.00;101186.59;4946960;28;20051;-88
2021/09/25 09:18:35;;;;;;;19.63;13.75;;;;;;;16.10;100.00;101195.00;4947324;28;20375;-83
2021/09/25 09:21:17;;;;;;;21.75;14.40;;;;;;;16.12;100.00;101190.22;4947457;28;20046;-84
2021/09/25 09:23:50;;;;;;;21.35;14.23;;;;;;;16.15;100.00;101196.09;4949660;28;20051;-82
2021/09/25 09:26:18;;;;;;;22.30;13.75;;;;;;;16.11;100.00;101199.34;4953009;28;20047;-84
2021/09/25 09:28:46;;;;;;;24.30;14.73;;;;;;;16.16;100.00;101202.34;4944671;28;20039;-83
2021/09/25 09:31:12;;;;;;;22.52;14.80;;;;;;;16.16;100.00;101203.19;4935794;28;20483;-87
2021/09/25 09:33:41;;;;;;;22.02;14.68;;;;;;;16.24;100.00;101211.19;4944363;28;20454;-84
2021/09/25 09:36:20;;;;;;;22.70;15.90;;;;;;;16.28;100.00;101206.22;4941296;28;20057;-86
2021/09/25 09:38:50;;;;;;;21.30;15.32;;;;;;;16.26;100.00;101207.47;4937274;28;20281;-83
2021/09/25 09:41:40;;;;;;;22.40;15.57;;;;;;;16.34;100.00;101210.03;4927634;28;20060;-83
2021/09/25 09:44:26;;;;;;;21.17;14.93;;;;;;;16.36;100.00;101200.69;4935834;28;20055;-84
2021/09/25 09:47:08;;;;;;;22.13;15.23;;;;;;;16.39;100.00;101202.19;4929647;28;20344;-84
2021/09/25 09:49:36;;;;;;;24.83;16.48;;;;;;;16.39;100.00;101205.72;4943366;28;20047;-82
2021/09/25 09:52:03;;;;;;;22.90;15.82;;;;;;;16.45;100.00;101204.94;4941889;28;20058;-85
2021/09/25 09:54:49;;;;;;;24.20;15.18;;;;;;;16.43;100.00;101208.91;4944038;28;20047;-84
2021/09/25 09:57:18;;;;;;;24.08;15.00;;;;;;;16.46;100.00;101206.63;4930731;28;20070;-83
2021/09/25 09:59:45;;;;;;;26.27;15.98;;;;;;;16.46;100.00;101212.06;4935020;28;20043;-85
2021/09/25 10:02:10;;;;;;;22.90;15.55;;;;;;;16.52;100.00;101212.31;4940593;28;20512;-87
2021/09/25 10:04:37;;;;;;;24.88;15.80;;;;;;;16.56;100.00;101213.59;4935450;28;20046;-83
2021/09/25 10:07:03;;;;;;;24.27;14.93;;;;;;;16.55;100.00;101218.19;4931485;28;20047;-85
2021/09/25 10:09:32;;;;;;;25.55;15.10;;;;;;;16.60;100.00;101217.59;4934111;28;20454;-85
2021/09/25 10:12:18;;;;;;;24.50;16.10;;;;;;;16.63;100.00;101225.31;4933463;28;20063;-84
2021/09/25 10:14:46;;;;;;;23.02;15.15;;;;;;;16.60;100.00;101223.00;4940921;28;20278;-83
2021/09/25 10:17:13;;;;;;;22.13;15.35;;;;;;;16.60;100.00;101217.59;4936790;28;20062;-82
2021/09/25 10:19:42;;;;;;;24.45;15.40;;;;;;;16.60;100.00;101221.16;4943621;28;20109;-86
2021/09/25 10:22:14;;;;;;;25.27;15.10;;;;;;;16.61;100.00;101222.00;4939774;28;20640;-86
2021/09/25 10:24:45;;;;;;;25.08;15.05;;;;;;;16.61;100.00;101224.72;4946259;28;20536;-83
2021/09/25 10:27:10;;;;;;;23.48;14.85;;;;;;;16.58;100.00;101217.78;4939201;28;20048;-82
2021/09/25 10:29:47;;;;;;;22.02;14.25;;;;;;;16.57;100.00;101224.25;4935679;28;20046;-82
2021/09/25 10:32:23;;;;;;;27.85;16.50;;;;;;;16.57;100.00;101220.69;4943551;28;20149;-87
2021/09/25 10:35:35;;;;;;;25.20;16.35;;;;;;;16.61;100.00;101220.13;4927959;28;20051;-82
2021/09/25 10:38:02;;;;;;;27.73;15.52;;;;;;;16.57;100.00;101209.84;4932891;28;20619;-84
2021/09/25 10:40:34;;;;;;;25.88;16.55;;;;;;;16.63;100.00;101219.91;4936696;28;20052;-83
2021/09/25 10:43:01;;;;;;;23.05;15.23;;;;;;;16.65;100.00;101217.84;4934543;28;20083;-85
2021/09/25 10:45:32;;;;;;;25.10;16.23;;;;;;;16.67;100.00;101221.22;4946019;28;20046;-86
2021/09/25 10:48:24;;;;;;;25.92;16.35;;;;;;;16.70;100.00;101223.53;4944402;28;20087;-84
2021/09/25 10:50:54;;;;;;;26.45;16.63;;;;;;;16.71;100.00;101225.19;4936119;28;20513;-84
2021/09/25 10:53:22;;;;;;;24.02;15.35;;;;;;;16.73;100.00;101225.03;4941908;28;20059;-84
2021/09/25 10:55:50;;;;;;;23.95;14.13;;;;;;;16.72;100.00;101226.91;4943624;28;20084;-83
2021/09/25 10:58:24;;;;;;;24.55;17.00;;;;;;;16.76;100.00;101230.06;4941727;28;20058;-85
2021/09/25 11:00:51;;;;;;;24.67;16.95;;;;;;;16.78;100.00;101222.59;4942558;28;20050;-84